createdAt,value
2023-04-17T00:01:20.006Z,101148.23
2023-04-17T00:03:53.243Z,101145.59
2023-04-17T00:06:27.461Z,101138.52
2023-04-17T00:09:00.098Z,101135.75
2023-04-17T00:11:32.649Z,101133.09
2023-04-17T00:14:05.925Z,101135.23
2023-04-17T00:16:38.226Z,101132.30
2023-04-17T00:19:10.592Z,101141.17
2023-04-17T00:21:42.993Z,101148.19
2023-04-17T00:24:15.389Z,101148.45
2023-04-17T00:26:47.591Z,101148.25
2023-04-17T00:29:19.883Z,101153.11
2023-04-17T00:31:52.233Z,101152.63
2023-04-17T00:34:24.687Z,101155.33
2023-04-17T00:36:56.776Z,101154.05
2023-04-17T00:39:28.919Z,101150.20
2023-04-17T00:42:01.680Z,101154.42
2023-04-17T00:44:34.190Z,101154.71
2023-04-17T00:47:06.956Z,101155.77
2023-04-17T00:49:39.202Z,101153.23
2023-04-17T00:52:12.222Z,101155.17
2023-04-17T00:54:44.714Z,101157.65
2023-04-17T00:57:17.031Z,101158.93
2023-04-17T00:59:50.721Z,101162.64
2023-04-17T01:02:23.061Z,101162.95
2023-04-17T01:04:55.495Z,101167.66
2023-04-17T01:07:28.555Z,101164.45
2023-04-17T01:10:01.956Z,101164.27
2023-04-17T01:12:34.624Z,101164.89
2023-04-17T01:15:09.473Z,101165.59
2023-04-17T01:17:41.885Z,101166.83
2023-04-17T01:20:15.206Z,101159.93
2023-04-17T01:22:49.902Z,101173.52
2023-04-17T01:25:20.506Z,101169.11
2023-04-17T01:27:52.962Z,101177.90
2023-04-17T01:30:25.869Z,101168.55
2023-04-17T01:33:06.083Z,101156.98
2023-04-17T01:35:38.393Z,101172.16
2023-04-17T01:38:10.589Z,101170.77
2023-04-17T01:40:42.749Z,101165.91
2023-04-17T01:43:14.976Z,101168.23
2023-04-17T01:45:47.579Z,101170.19
2023-04-17T01:48:19.832Z,101167.98
2023-04-17T01:50:52.272Z,101170.63
2023-04-17T01:53:24.645Z,101174.05
2023-04-17T01:55:56.789Z,101171.71
2023-04-17T01:58:29.109Z,101173.61
2023-04-17T02:01:02.107Z,101172.31
2023-04-17T02:03:34.339Z,101171.45
2023-04-17T02:06:07.241Z,101180.84
2023-04-17T02:08:39.554Z,101176.42
2023-04-17T02:11:13.583Z,101177.76
2023-04-17T02:13:47.392Z,101168.98
2023-04-17T02:16:21.918Z,101183.75
2023-04-17T02:18:54.716Z,101182.55
2023-04-17T02:21:27.427Z,101185.80
2023-04-17T02:23:59.772Z,101184.36
2023-04-17T02:26:33.937Z,101189.73
2023-04-17T02:29:06.332Z,101192.41
2023-04-17T02:31:38.584Z,101192.73
2023-04-17T02:34:10.828Z,101197.45
2023-04-17T02:36:43.969Z,101195.16
2023-04-17T02:39:16.050Z,101197.48
2023-04-17T02:41:48.903Z,101202.45
2023-04-17T02:44:21.332Z,101197.50
2023-04-17T02:46:54.140Z,101204.74
2023-04-17T02:49:26.898Z,101204.17
2023-04-17T02:51:59.469Z,101189.96
2023-04-17T02:54:31.883Z,101206.90
2023-04-17T02:57:04.217Z,101207.29
2023-04-17T02:59:36.449Z,101211.45
2023-04-17T03:02:09.333Z,101210.70
2023-04-17T03:04:41.970Z,101210.56
2023-04-17T03:07:14.113Z,101209.06
2023-04-17T03:09:47.135Z,101208.89
2023-04-17T03:12:19.871Z,101206.42
2023-04-17T03:14:52.366Z,101204.02
2023-04-17T03:17:25.201Z,101205.55
2023-04-17T03:19:58.018Z,101204.57
2023-04-17T03:22:30.574Z,101205.38
2023-04-17T03:25:02.926Z,101192.27
2023-04-17T03:27:40.949Z,101201.64
2023-04-17T03:30:14.240Z,101202.29
2023-04-17T03:32:49.649Z,101207.89
2023-04-17T03:35:22.696Z,101208.67
2023-04-17T03:37:54.929Z,101208.87
2023-04-17T03:40:28.311Z,101211.73
2023-04-17T03:43:00.496Z,101217.42
2023-04-17T03:45:33.449Z,101219.80
2023-04-17T03:48:07.456Z,101219.29
2023-04-17T03:50:41.973Z,101215.85
2023-04-17T03:53:14.404Z,101216.55
2023-04-17T03:55:46.804Z,101222.30
2023-04-17T03:58:27.739Z,101224.04
2023-04-17T04:01:02.026Z,101224.33
2023-04-17T04:03:36.450Z,101226.60
2023-04-17T04:06:09.566Z,101228.06
2023-04-17T04:08:42.312Z,101232.50
2023-04-17T04:11:14.876Z,101231.90
2023-04-17T04:13:47.916Z,101232.61
2023-04-17T04:16:20.097Z,101237.67
2023-04-17T04:18:54.225Z,101241.30
2023-04-17T04:21:28.402Z,101239.80
2023-04-17T04:24:01.234Z,101242.95
2023-04-17T04:26:33.638Z,101245.17
2023-04-17T04:29:05.975Z,101248.41
2023-04-17T04:31:51.086Z,101254.73
2023-04-17T04:34:29.643Z,101256.05
2023-04-17T04:37:02.290Z,101262.84
2023-04-17T04:39:47.419Z,101258.70
2023-04-17T04:42:22.479Z,101261.99
2023-04-17T04:45:12.076Z,101263.88
2023-04-17T04:47:44.686Z,101267.11
2023-04-17T04:50:18.236Z,101269.80
2023-04-17T04:52:51.068Z,101270.01
2023-04-17T04:55:41.853Z,101269.52
2023-04-17T04:58:14.734Z,101268.45
2023-04-17T05:00:47.753Z,101265.13
2023-04-17T05:03:26.459Z,101266.83
2023-04-17T05:05:59.564Z,101270.98
2023-04-17T05:08:35.917Z,101274.60
2023-04-17T05:11:15.432Z,101275.88
2023-04-17T05:13:48.028Z,101275.21
2023-04-17T05:16:25.197Z,101280.42
2023-04-17T05:18:58.276Z,101277.76
2023-04-17T05:21:51.264Z,101278.14
2023-04-17T05:24:24.410Z,101278.23
2023-04-17T05:26:57.368Z,101280.85
2023-04-17T05:29:30.459Z,101275.29
2023-04-17T05:32:04.401Z,101263.06
2023-04-17T05:34:50.365Z,101274.60
2023-04-17T05:37:22.949Z,101276.67
2023-04-17T05:39:55.710Z,101281.17
2023-04-17T05:42:28.143Z,101277.48
2023-04-17T05:45:00.851Z,101278.86
2023-04-17T05:47:33.459Z,101276.35
2023-04-17T05:50:07.349Z,101276.21
2023-04-17T05:52:40.960Z,101275.40
2023-04-17T05:55:15.161Z,101283.02
2023-04-17T05:57:48.530Z,101281.50
2023-04-17T06:00:22.757Z,101281.27
2023-04-17T06:02:57.370Z,101284.31
2023-04-17T06:05:36.721Z,101286.14
2023-04-17T06:08:09.167Z,101285.79
2023-04-17T06:10:41.242Z,101288.55
2023-04-17T06:13:13.632Z,101292.66
2023-04-17T06:15:49.478Z,101296.33
2023-04-17T06:18:22.196Z,101293.77
2023-04-17T06:20:54.915Z,101295.48
2023-04-17T06:23:27.541Z,101300.42
2023-04-17T06:25:59.704Z,101304.71
2023-04-17T06:28:32.336Z,101304.41
2023-04-17T06:31:05.194Z,101313.06
2023-04-17T06:33:37.414Z,101312.70
2023-04-17T06:36:10.195Z,101318.73
2023-04-17T06:38:52.583Z,101319.89
2023-04-17T06:41:25.635Z,101309.48
2023-04-17T06:43:59.066Z,101332.34
2023-04-17T06:46:41.392Z,101333.23
2023-04-17T06:49:13.868Z,101334.86
2023-04-17T06:51:47.448Z,101332.96
2023-04-17T06:54:20.261Z,101335.42
2023-04-17T06:56:52.709Z,101341.05
2023-04-17T06:59:25.057Z,101344.62
2023-04-17T07:01:57.338Z,101348.52
2023-04-17T07:04:31.270Z,101352.60
2023-04-17T07:07:03.786Z,101354.19
2023-04-17T07:09:36.146Z,101357.83
2023-04-17T07:12:08.429Z,101361.05
2023-04-17T07:14:40.810Z,101371.42
2023-04-17T07:17:13.039Z,101367.75
2023-04-17T07:19:45.411Z,101369.88
2023-04-17T07:22:18.124Z,101374.27
2023-04-17T07:24:50.746Z,101376.05
2023-04-17T07:27:23.144Z,101377.14
2023-04-17T07:29:55.490Z,101381.17
2023-04-17T07:32:28.516Z,101385.39
2023-04-17T07:35:01.047Z,101384.56
2023-04-17T07:37:33.245Z,101384.73
2023-04-17T07:40:09.771Z,101391.79
2023-04-17T07:42:42.122Z,101391.16
2023-04-17T07:45:14.759Z,101396.27
2023-04-17T07:47:47.446Z,101395.88
2023-04-17T07:50:19.783Z,101400.04
2023-04-17T07:52:52.150Z,101401.71
2023-04-17T07:55:24.662Z,101403.55
2023-04-17T07:57:57.055Z,101392.89
2023-04-17T08:00:29.471Z,101392.73
2023-04-17T08:03:02.195Z,101405.19
2023-04-17T08:05:35.103Z,101396.30
2023-04-17T08:08:08.508Z,101406.96
2023-04-17T08:10:40.683Z,101412.67
2023-04-17T08:13:12.939Z,101396.20
2023-04-17T08:15:45.938Z,101412.58
2023-04-17T08:18:18.010Z,101414.27
2023-04-17T08:20:50.227Z,101417.23
2023-04-17T08:23:22.524Z,101420.73
2023-04-17T08:25:55.131Z,101424.80
2023-04-17T08:28:27.819Z,101433.17
2023-04-17T08:31:00.155Z,101434.43
2023-04-17T08:33:32.529Z,101436.87
2023-04-17T08:36:07.233Z,101439.73
2023-04-17T08:38:42.203Z,101443.70
2023-04-17T08:41:17.273Z,101439.34
2023-04-17T08:43:50.691Z,101442.74
2023-04-17T08:46:25.068Z,101432.17
2023-04-17T08:48:57.779Z,101447.33
2023-04-17T08:51:30.065Z,101448.73
2023-04-17T08:54:02.402Z,101449.42
2023-04-17T08:56:35.098Z,101450.00
2023-04-17T08:59:07.352Z,101452.29
2023-04-17T09:01:39.794Z,101450.20
2023-04-17T09:04:12.581Z,101452.71
2023-04-17T09:06:54.711Z,101452.81
2023-04-17T09:09:27.185Z,101453.67
2023-04-17T09:12:14.878Z,101458.58
2023-04-17T09:14:47.394Z,101460.27
2023-04-17T09:17:21.056Z,101462.45
2023-04-17T09:20:09.058Z,101463.55
2023-04-17T09:22:42.271Z,101466.58
2023-04-17T09:25:23.287Z,101467.00
2023-04-17T09:27:56.585Z,101468.91
2023-04-17T09:30:29.004Z,101469.60
2023-04-17T09:33:08.828Z,101472.65
2023-04-17T09:35:41.216Z,101471.84
2023-04-17T09:38:13.868Z,101472.95
2023-04-17T09:40:45.925Z,101479.63
2023-04-17T09:43:18.857Z,101473.59
2023-04-17T09:45:52.409Z,101471.79
2023-04-17T09:48:24.821Z,101471.85
2023-04-17T09:50:58.678Z,101473.50
2023-04-17T09:53:31.553Z,101472.17
2023-04-17T09:56:05.617Z,101465.90
2023-04-17T09:58:39.431Z,101475.95
2023-04-17T10:01:12.893Z,101473.13
2023-04-17T10:03:45.986Z,101475.95
2023-04-17T10:06:18.904Z,101475.89
2023-04-17T10:08:52.335Z,101475.02
2023-04-17T10:11:28.623Z,101474.55
2023-04-17T10:14:10.139Z,101474.17
2023-04-17T10:16:43.965Z,101477.16
2023-04-17T10:19:33.053Z,101478.67
2023-04-17T10:22:34.124Z,101479.30
2023-04-17T10:25:23.577Z,101483.52
2023-04-17T10:27:58.407Z,101485.98
2023-04-17T10:30:55.389Z,101481.23
2023-04-17T10:33:28.673Z,101471.70
2023-04-17T10:36:00.966Z,101479.25
2023-04-17T10:38:37.810Z,101474.15
2023-04-17T10:41:12.016Z,101472.67
2023-04-17T10:43:46.916Z,101470.75
2023-04-17T10:46:17.551Z,101472.12
2023-04-17T10:48:54.229Z,101465.15
2023-04-17T10:51:43.807Z,101462.59
2023-04-17T10:54:16.608Z,101463.39
2023-04-17T10:56:49.316Z,101460.09
2023-04-17T10:59:23.517Z,101457.41
2023-04-17T11:02:07.902Z,101445.72
2023-04-17T11:04:40.324Z,101457.63
2023-04-17T11:07:16.084Z,101455.73
2023-04-17T11:09:54.149Z,101455.89
2023-04-17T11:12:26.305Z,101446.05
2023-04-17T11:15:04.390Z,101451.30
2023-04-17T11:17:40.293Z,101452.27
2023-04-17T11:20:14.292Z,101452.34
2023-04-17T11:22:46.603Z,101452.77
2023-04-17T11:25:31.445Z,101452.73
2023-04-17T11:28:06.038Z,101456.52
2023-04-17T11:30:40.776Z,101457.75
2023-04-17T11:33:14.101Z,101459.64
2023-04-17T11:35:47.097Z,101462.39
2023-04-17T11:38:22.362Z,101462.80
2023-04-17T11:40:56.722Z,101459.86
2023-04-17T11:43:30.424Z,101463.05
2023-04-17T11:46:05.245Z,101450.73
2023-04-17T11:48:36.124Z,101464.88
2023-04-17T11:51:09.109Z,101463.91
2023-04-17T11:53:49.018Z,101467.15
2023-04-17T11:56:23.091Z,101468.95
2023-04-17T11:58:56.650Z,101470.04
2023-04-17T12:01:29.925Z,101469.69
2023-04-17T12:04:02.613Z,101464.23
2023-04-17T12:06:41.078Z,101469.30
2023-04-17T12:09:21.838Z,101464.52
2023-04-17T12:11:54.020Z,101464.25
2023-04-17T12:14:26.794Z,101473.46
2023-04-17T12:16:59.059Z,101474.20
2023-04-17T12:19:32.104Z,101461.34
2023-04-17T12:22:05.071Z,101461.88
2023-04-17T12:24:37.081Z,101472.73
2023-04-17T12:27:09.329Z,101472.72
2023-04-17T12:29:44.523Z,101469.70
2023-04-17T12:32:17.834Z,101467.46
2023-04-17T12:34:50.648Z,101470.01
2023-04-17T12:37:22.968Z,101473.10
2023-04-17T12:39:55.113Z,101478.52
2023-04-17T12:42:29.547Z,101473.21
2023-04-17T12:45:03.569Z,101458.50
2023-04-17T12:47:35.803Z,101476.14
2023-04-17T12:50:10.583Z,101472.77
2023-04-17T12:52:42.001Z,101472.18
2023-04-17T12:55:14.382Z,101462.85
2023-04-17T12:57:47.227Z,101473.84
2023-04-17T13:00:21.322Z,101474.57
2023-04-17T13:02:53.998Z,101474.31
2023-04-17T13:05:26.932Z,101473.50
2023-04-17T13:07:59.749Z,101464.30
2023-04-17T13:10:32.004Z,101474.66
2023-04-17T13:13:04.818Z,101471.38
2023-04-17T13:15:37.182Z,101472.60
2023-04-17T13:18:10.527Z,101473.77
2023-04-17T13:20:43.082Z,101474.27
2023-04-17T13:23:15.116Z,101476.48
2023-04-17T13:25:47.747Z,101474.11
2023-04-17T13:28:20.036Z,101469.24
2023-04-17T13:30:53.130Z,101466.23
2023-04-17T13:33:25.963Z,101473.98
2023-04-17T13:35:58.682Z,101473.60
2023-04-17T13:38:30.997Z,101474.95
2023-04-17T13:41:03.274Z,101475.79
2023-04-17T13:43:35.719Z,101473.91
2023-04-17T13:46:09.308Z,101475.55
2023-04-17T13:48:41.508Z,101476.02
2023-04-17T13:51:14.726Z,101476.70
2023-04-17T13:53:46.978Z,101472.30
2023-04-17T13:56:19.399Z,101469.59
2023-04-17T13:58:52.299Z,101472.48
2023-04-17T14:01:24.898Z,101459.39
2023-04-17T14:04:00.449Z,101470.85
2023-04-17T14:06:34.826Z,101455.96
2023-04-17T14:09:07.593Z,101469.98
2023-04-17T14:11:39.826Z,101467.33
2023-04-17T14:14:12.968Z,101470.70
2023-04-17T14:16:47.280Z,101469.20
2023-04-17T14:19:20.128Z,101471.12
2023-04-17T14:21:52.805Z,101473.57
2023-04-17T14:24:24.927Z,101468.70
2023-04-17T14:26:57.970Z,101471.40
2023-04-17T14:29:30.333Z,101472.20
2023-04-17T14:32:02.739Z,101468.92
2023-04-17T14:34:35.303Z,101465.06
2023-04-17T14:37:07.796Z,101464.39
2023-04-17T14:39:40.167Z,101466.12
2023-04-17T14:42:12.953Z,101468.06
2023-04-17T14:44:45.623Z,101467.61
2023-04-17T14:47:18.027Z,101470.29
2023-04-17T14:49:50.360Z,101470.11
2023-04-17T14:52:22.755Z,101469.40
2023-04-17T14:54:54.935Z,101469.38
2023-04-17T14:57:27.869Z,101469.74
2023-04-17T15:00:01.065Z,101471.59
2023-04-17T15:02:38.379Z,101467.42
2023-04-17T15:05:12.891Z,101461.42
2023-04-17T15:07:45.606Z,101471.61
2023-04-17T15:10:18.298Z,101473.05
2023-04-17T15:12:50.462Z,101473.59
2023-04-17T15:15:22.717Z,101472.80
2023-04-17T15:17:54.989Z,101475.02
2023-04-17T15:20:28.420Z,101474.28
2023-04-17T15:23:00.905Z,101474.00
2023-04-17T15:25:34.645Z,101475.77
2023-04-17T15:28:07.089Z,101477.13
2023-04-17T15:30:39.430Z,101475.91
2023-04-17T15:33:12.394Z,101475.37
2023-04-17T15:35:45.007Z,101476.30
2023-04-17T15:38:17.531Z,101472.18
2023-04-17T15:40:49.888Z,101477.50
2023-04-17T15:43:22.491Z,101476.02
2023-04-17T15:45:55.669Z,101476.69
2023-04-17T15:48:27.982Z,101477.38
2023-04-17T15:51:00.420Z,101477.41
2023-04-17T15:53:33.246Z,101462.25
2023-04-17T15:56:06.853Z,101456.91
2023-04-17T15:58:39.062Z,101473.25
2023-04-17T16:01:11.794Z,101478.83
2023-04-17T16:03:44.327Z,101479.81
2023-04-17T16:06:16.878Z,101476.72
2023-04-17T16:08:49.553Z,101474.44
2023-04-17T16:11:21.967Z,101471.95
2023-04-17T16:13:54.181Z,101469.42
2023-04-17T16:16:29.394Z,101471.60
2023-04-17T16:19:02.066Z,101466.73
2023-04-17T16:21:34.439Z,101458.94
2023-04-17T16:24:07.269Z,101470.71
2023-04-17T16:26:39.588Z,101466.39
2023-04-17T16:29:12.040Z,101471.17
2023-04-17T16:31:44.791Z,101470.84
2023-04-17T16:34:17.327Z,101474.26
2023-04-17T16:36:50.042Z,101453.23
2023-04-17T16:39:22.671Z,101467.60
2023-04-17T16:41:56.279Z,101485.55
2023-04-17T16:44:29.805Z,101487.38
2023-04-17T16:49:37.572Z,101472.81
2023-04-17T16:52:10.305Z,101493.17
2023-04-17T16:54:42.532Z,101493.64
2023-04-17T16:57:15.055Z,101496.59
2023-04-17T16:59:47.294Z,101498.41
2023-04-17T17:02:19.475Z,101499.75
2023-04-17T17:04:52.198Z,101491.25
2023-04-17T17:07:24.411Z,101506.82
2023-04-17T17:09:56.844Z,101503.75
2023-04-17T17:12:29.258Z,101504.86
2023-04-17T17:15:01.405Z,101505.90
2023-04-17T17:17:33.848Z,101512.52
2023-04-17T17:20:08.414Z,101511.38
2023-04-17T17:22:40.633Z,101511.42
2023-04-17T17:25:13.218Z,101520.90
2023-04-17T17:27:45.607Z,101518.00
2023-04-17T17:30:19.111Z,101517.77
2023-04-17T17:32:51.488Z,101519.63
2023-04-17T17:35:24.317Z,101523.23
2023-04-17T17:37:58.276Z,101525.70
2023-04-17T17:40:31.092Z,101525.61
2023-04-17T17:43:04.868Z,101527.34
2023-04-17T17:45:37.186Z,101528.23
2023-04-17T17:48:10.326Z,101529.71
2023-04-17T17:50:42.703Z,101528.84
2023-04-17T17:53:17.582Z,101535.58
2023-04-17T17:55:55.143Z,101535.35
2023-04-17T17:58:27.647Z,101543.13
2023-04-17T18:01:00.071Z,101544.19
2023-04-17T18:03:33.037Z,101535.29
2023-04-17T18:06:05.806Z,101535.65
2023-04-17T18:08:38.242Z,101550.23
2023-04-17T18:11:10.912Z,101527.59
2023-04-17T18:13:43.261Z,101552.44
2023-04-17T18:16:15.784Z,101553.75
2023-04-17T18:18:48.264Z,101560.04
2023-04-17T18:21:20.724Z,101564.35
2023-04-17T18:23:53.097Z,101562.09
2023-04-17T18:26:25.534Z,101561.02
2023-04-17T18:28:57.891Z,101572.21
2023-04-17T18:31:30.152Z,101569.55
2023-04-17T18:34:02.883Z,101577.55
2023-04-17T18:36:35.225Z,101579.52
2023-04-17T18:39:07.614Z,101581.69
2023-04-17T18:41:40.194Z,101584.83
2023-04-17T18:44:12.540Z,101591.30
2023-04-17T18:46:45.243Z,101595.71
2023-04-17T18:49:17.972Z,101593.26
2023-04-17T18:51:50.348Z,101596.11
2023-04-17T18:54:23.183Z,101594.41
2023-04-17T18:56:55.606Z,101593.86
2023-04-17T18:59:28.183Z,101597.86
2023-04-17T19:02:00.661Z,101597.48
2023-04-17T19:04:33.056Z,101594.91
2023-04-17T19:07:05.542Z,101591.34
2023-04-17T19:09:38.173Z,101592.09
2023-04-17T19:12:10.831Z,101592.67
2023-04-17T19:14:43.057Z,101593.83
2023-04-17T19:17:16.086Z,101593.97
2023-04-17T19:19:48.396Z,101592.20
2023-04-17T19:22:20.850Z,101590.44
2023-04-17T19:24:53.288Z,101597.45
2023-04-17T19:27:27.177Z,101597.33
2023-04-17T19:29:59.872Z,101595.41
2023-04-17T19:32:32.240Z,101601.28
2023-04-17T19:35:04.595Z,101590.55
2023-04-17T19:37:37.080Z,101601.13
2023-04-17T19:40:23.833Z,101605.61
2023-04-17T19:43:01.515Z,101606.75
2023-04-17T19:45:35.923Z,101613.34
2023-04-17T19:48:09.299Z,101619.40
2023-04-17T19:50:41.504Z,101620.13
2023-04-17T19:53:13.841Z,101619.81
2023-04-17T19:55:46.386Z,101624.00
2023-04-17T19:58:18.567Z,101625.21
2023-04-17T20:00:50.841Z,101616.84
2023-04-17T20:03:23.374Z,101627.58
2023-04-17T20:05:56.230Z,101627.38
2023-04-17T20:08:29.016Z,101627.95
2023-04-17T20:11:01.809Z,101631.83
2023-04-17T20:13:34.706Z,101631.01
2023-04-17T20:16:07.688Z,101629.61
2023-04-17T20:18:40.050Z,101628.02
2023-04-17T20:21:13.216Z,101628.91
2023-04-17T20:23:46.933Z,101623.02
2023-04-17T20:26:19.183Z,101624.52
2023-04-17T20:28:54.745Z,101620.15
2023-04-17T20:31:27.125Z,101619.45
2023-04-17T20:33:59.498Z,101616.98
2023-04-17T20:36:31.953Z,101616.55
2023-04-17T20:39:04.278Z,101611.95
2023-04-17T20:41:37.776Z,101612.02
2023-04-17T20:44:12.291Z,101604.14
2023-04-17T20:46:44.783Z,101606.85
2023-04-17T20:49:17.166Z,101612.05
2023-04-17T20:51:49.459Z,101612.86
2023-04-17T20:54:23.181Z,101609.65
2023-04-17T20:56:55.598Z,101614.02
2023-04-17T20:59:27.895Z,101610.32
2023-04-17T21:02:00.147Z,101608.84
2023-04-17T21:04:32.788Z,101608.27
2023-04-17T21:07:05.398Z,101612.21
2023-04-17T21:09:37.604Z,101612.33
2023-04-17T21:12:10.279Z,101618.95
2023-04-17T21:14:43.389Z,101624.88
2023-04-17T21:17:15.703Z,101627.96
2023-04-17T21:19:49.434Z,101628.23
2023-04-17T21:22:21.791Z,101630.36
2023-04-17T21:24:54.269Z,101633.71
2023-04-17T21:27:26.677Z,101628.24
2023-04-17T21:29:59.009Z,101632.28
2023-04-17T21:32:31.363Z,101633.45
2023-04-17T21:35:03.622Z,101634.73
2023-04-17T21:37:36.063Z,101629.92
2023-04-17T21:40:10.165Z,101629.88
2023-04-17T21:42:42.794Z,101629.96
2023-04-17T21:45:16.410Z,101627.65
2023-04-17T21:47:48.821Z,101626.71
2023-04-17T21:50:21.495Z,101626.65
2023-04-17T21:52:54.074Z,101623.41
2023-04-17T21:55:26.649Z,101628.10
2023-04-17T21:57:59.447Z,101613.70
2023-04-17T22:00:31.838Z,101628.34
2023-04-17T22:03:04.183Z,101632.91
2023-04-17T22:05:36.686Z,101635.03
2023-04-17T22:08:09.017Z,101634.71
2023-04-17T22:10:41.176Z,101637.67
2023-04-17T22:13:14.963Z,101639.25
2023-04-17T22:15:48.444Z,101640.24
2023-04-17T22:18:21.936Z,101630.15
2023-04-17T22:21:46.449Z,101644.61
2023-04-17T22:24:54.500Z,101642.21
2023-04-17T22:27:43.930Z,101639.65
2023-04-17T22:30:52.114Z,101638.65
2023-04-17T22:33:59.857Z,101639.23
2023-04-17T22:37:25.055Z,101640.65
2023-04-17T22:40:15.279Z,101637.52
2023-04-17T22:43:23.072Z,101639.20
2023-04-17T22:45:56.473Z,101637.81
2023-04-17T22:48:28.876Z,101636.84
2023-04-17T22:51:01.089Z,101636.52
2023-04-17T22:53:33.099Z,101639.00
2023-04-17T22:56:06.054Z,101640.85
2023-04-17T22:58:38.535Z,101649.45
2023-04-17T23:01:10.642Z,101644.62
2023-04-17T23:03:42.744Z,101643.41
2023-04-17T23:06:14.836Z,101639.56
2023-04-17T23:08:46.828Z,101637.43
2023-04-17T23:11:19.363Z,101634.58
2023-04-17T23:13:51.714Z,101641.80
2023-04-17T23:16:24.361Z,101636.92
2023-04-17T23:18:56.629Z,101636.39
2023-04-17T23:21:28.826Z,101633.73
2023-04-17T23:24:01.062Z,101640.96
2023-04-17T23:26:33.205Z,101636.03
2023-04-17T23:29:05.679Z,101634.39
2023-04-17T23:31:39.205Z,101635.42
2023-04-17T23:34:11.614Z,101632.02
2023-04-17T23:36:44.076Z,101635.64
2023-04-17T23:39:16.346Z,101633.63
2023-04-17T23:41:48.953Z,101619.08
2023-04-17T23:44:21.354Z,101630.12
2023-04-17T23:46:54.032Z,101626.21
2023-04-17T23:49:26.332Z,101627.90
2023-04-17T23:51:58.889Z,101625.84
2023-04-17T23:54:31.054Z,101623.92
2023-04-17T23:57:03.799Z,101622.79
2023-04-17T23:59:35.891Z,101621.80
